< < Back
Terminal Aerodrome Forecast


Current Version              Previous Versions:   1  2  3  4  5  6  7  8  9  

Terminal Aerodrome Forecast

758
FTUS42 KFFC 021122
TAFMCN
TAF
KMCN 021122Z 0212/0312 22003KT P6SM BKN110
     FM021500 22005KT P6SM SCT110
     FM021800 21008KT P6SM VCSH SCT040
     FM022000 23006KT 4SM -TSRA BR BKN025CB
     FM030300 23006KT P6SM VCSH BKN025
     FM030500 00000KT P6SM BKN025=

Latest METAR

603
SAUS80 KWBC 021900 RRA
MTRMCN
METAR KMCN 021853Z 19004KT 10SM SCT110 28/17 A2998 RMK AO2 RAB21E34
SLP148 P0002 T02780172


USA.gov is the U.S. government's official web portal to all federal, state and local government web resources and services.